sensor_id;sensor_type;location;lat;lon;timestamp;P1;P2;P0
76330;PMS7003;65148;51.912;15.570;2022-12-18T00:07:48;26;19;11
76330;PMS7003;65148;51.912;15.570;2022-12-18T00:22:49;26;20;12
76330;PMS7003;65148;51.912;15.570;2022-12-18T00:37:50;22;18;10
76330;PMS7003;65148;51.912;15.570;2022-12-18T00:53:16;32;22;13
76330;PMS7003;65148;51.912;15.570;2022-12-18T01:08:17;23;21;13
76330;PMS7003;65148;51.912;15.570;2022-12-18T01:23:18;21;17;11
76330;PMS7003;65148;51.912;15.570;2022-12-18T01:38:19;20;17;9
76330;PMS7003;65148;51.912;15.570;2022-12-18T01:53:44;17;14;9
76330;PMS7003;65148;51.912;15.570;2022-12-18T02:39:30;20;16;9
76330;PMS7003;65148;51.912;15.570;2022-12-18T02:54:38;9;7;7
76330;PMS7003;65148;51.912;15.570;2022-12-18T03:09:46;11;11;7
76330;PMS7003;65148;51.912;15.570;2022-12-18T03:25:13;14;11;7
76330;PMS7003;65148;51.912;15.570;2022-12-18T03:40:16;15;13;6
76330;PMS7003;65148;51.912;15.570;2022-12-18T03:55:17;20;17;10
76330;PMS7003;65148;51.912;15.570;2022-12-18T04:10:21;36;27;15
76330;PMS7003;65148;51.912;15.570;2022-12-18T04:25:41;33;27;17
76330;PMS7003;65148;51.912;15.570;2022-12-18T04:40:42;22;17;9
76330;PMS7003;65148;51.912;15.570;2022-12-18T04:55:43;28;17;9
76330;PMS7003;65148;51.912;15.570;2022-12-18T05:10:44;25;23;15
76330;PMS7003;65148;51.912;15.570;2022-12-18T05:26:16;15;12;7
76330;PMS7003;65148;51.912;15.570;2022-12-18T05:41:18;24;17;11
76330;PMS7003;65148;51.912;15.570;2022-12-18T05:56:20;24;18;11
76330;PMS7003;65148;51.912;15.570;2022-12-18T06:11:23;30;22;17
76330;PMS7003;65148;51.912;15.570;2022-12-18T06:26:41;15;13;7
76330;PMS7003;65148;51.912;15.570;2022-12-18T06:41:42;19;14;9
76330;PMS7003;65148;51.912;15.570;2022-12-18T06:56:45;23;20;13
76330;PMS7003;65148;51.912;15.570;2022-12-18T07:11:46;26;19;13
76330;PMS7003;65148;51.912;15.570;2022-12-18T07:27:09;25;18;11
76330;PMS7003;65148;51.912;15.570;2022-12-18T07:42:10;58;47;27
76330;PMS7003;65148;51.912;15.570;2022-12-18T07:57:24;25;22;17
76330;PMS7003;65148;51.912;15.570;2022-12-18T08:12:53;30;28;18
76330;PMS7003;65148;51.912;15.570;2022-12-18T08:27:54;25;16;10
76330;PMS7003;65148;51.912;15.570;2022-12-18T08:42:57;43;33;21
76330;PMS7003;65148;51.912;15.570;2022-12-18T08:58:38;46;34;23
76330;PMS7003;65148;51.912;15.570;2022-12-18T09:13:39;58;45;26
76330;PMS7003;65148;51.912;15.570;2022-12-18T09:28:40;63;47;28
76330;PMS7003;65148;51.912;15.570;2022-12-18T09:43:45;52;41;23
76330;PMS7003;65148;51.912;15.570;2022-12-18T09:59:09;35;29;18
76330;PMS7003;65148;51.912;15.570;2022-12-18T10:14:23;46;41;23
76330;PMS7003;65148;51.912;15.570;2022-12-18T10:29:32;49;40;24
76330;PMS7003;65148;51.912;15.570;2022-12-18T10:45:00;44;39;27
76330;PMS7003;65148;51.912;15.570;2022-12-18T11:15:23;42;34;21
76330;PMS7003;65148;51.912;15.570;2022-12-18T11:30:43;51;39;23
76330;PMS7003;65148;51.912;15.570;2022-12-18T12:46:56;52;42;27
76330;PMS7003;65148;51.912;15.570;2022-12-18T13:17:28;51;41;25
76330;PMS7003;65148;51.912;15.570;2022-12-18T13:32:31;49;38;24
76330;PMS7003;65148;51.912;15.570;2022-12-18T13:48:00;54;44;28
76330;PMS7003;65148;51.912;15.570;2022-12-18T14:03:01;62;44;27
76330;PMS7003;65148;51.912;15.570;2022-12-18T14:32:32;88;66;40
76330;PMS7003;65148;51.912;15.570;2022-12-18T14:47:33;61;46;27
76330;PMS7003;65148;51.912;15.570;2022-12-18T15:02:34;100;77;47
76330;PMS7003;65148;51.912;15.570;2022-12-18T15:33:22;86;63;39
76330;PMS7003;65148;51.912;15.570;2022-12-18T15:48:27;113;89;50
76330;PMS7003;65148;51.912;15.570;2022-12-18T16:03:49;90;68;41
76330;PMS7003;65148;51.912;15.570;2022-12-18T16:18:50;84;65;39
76330;PMS7003;65148;51.912;15.570;2022-12-18T16:34:09;85;63;38
76330;PMS7003;65148;51.912;15.570;2022-12-18T16:49:03;105;84;47
76330;PMS7003;65148;51.912;15.570;2022-12-18T17:04:23;77;56;30
76330;PMS7003;65148;51.912;15.570;2022-12-18T17:19:24;135;104;54
76330;PMS7003;65148;51.912;15.570;2022-12-18T17:34:26;81;60;38
76330;PMS7003;65148;51.912;15.570;2022-12-18T17:49:27;137;101;54
76330;PMS7003;65148;51.912;15.570;2022-12-18T18:04:56;85;60;37
76330;PMS7003;65148;51.912;15.570;2022-12-18T18:19:57;73;55;31
76330;PMS7003;65148;51.912;15.570;2022-12-18T18:34:58;68;50;28
76330;PMS7003;65148;51.912;15.570;2022-12-18T18:49:58;64;49;30
76330;PMS7003;65148;51.912;15.570;2022-12-18T19:05:29;63;48;30
76330;PMS7003;65148;51.912;15.570;2022-12-18T19:20:31;43;33;12
76330;PMS7003;65148;51.912;15.570;2022-12-18T19:35:32;44;31;22
76330;PMS7003;65148;51.912;15.570;2022-12-18T19:50:33;62;49;28
76330;PMS7003;65148;51.912;15.570;2022-12-18T20:21:10;51;41;27
76330;PMS7003;65148;51.912;15.570;2022-12-18T20:36:14;75;57;35
76330;PMS7003;65148;51.912;15.570;2022-12-18T20:51:44;55;43;27
76330;PMS7003;65148;51.912;15.570;2022-12-18T21:06:48;80;60;33
76330;PMS7003;65148;51.912;15.570;2022-12-18T21:21:50;50;38;26
76330;PMS7003;65148;51.912;15.570;2022-12-18T21:36:53;47;41;25
76330;PMS7003;65148;51.912;15.570;2022-12-18T21:52:15;53;43;24
76330;PMS7003;65148;51.912;15.570;2022-12-18T22:07:16;47;35;23
76330;PMS7003;65148;51.912;15.570;2022-12-18T22:22:17;50;37;20
76330;PMS7003;65148;51.912;15.570;2022-12-18T22:37:17;52;39;23
76330;PMS7003;65148;51.912;15.570;2022-12-18T22:52:46;71;54;32
76330;PMS7003;65148;51.912;15.570;2022-12-18T23:07:47;53;41;22
76330;PMS7003;65148;51.912;15.570;2022-12-18T23:22:47;56;46;28
76330;PMS7003;65148;51.912;15.570;2022-12-18T23:37:48;63;48;30
76330;PMS7003;65148;51.912;15.570;2022-12-18T23:53:17;54;42;25
